Time;durP1;ratioP1;P1;durP2;ratioP2;P2;SDS_P1;SDS_P2;PMS_P1;PMS_P2;Temp;Humidity;BMP_temperature;BMP_pressure;BME280_temperature;BME280_humidity;BME280_pressure;Samples;Min_cycle;Max_cycle;Signal;HPM_P1;HPM_P2
2023/05/21 00:01:31;;;;;;;14.67;13.07;;;;;;;19.70;58.65;97073.56;5007980;28;20219;-70
2023/05/21 00:03:58;;;;;;;15.37;13.73;;;;;;;19.69;58.50;97073.78;5007946;28;20573;-69
2023/05/21 00:06:23;;;;;;;14.70;12.60;;;;;;;19.68;58.64;97074.81;5014531;28;20224;-68
2023/05/21 00:08:49;;;;;;;16.33;14.00;;;;;;;19.63;58.75;97070.16;5006729;28;20467;-70
2023/05/21 00:11:14;;;;;;;18.17;12.80;;;;;;;19.62;58.68;97071.16;5007852;28;23239;-69
2023/05/21 00:13:40;;;;;;;15.43;12.80;;;;;;;19.58;58.76;97064.63;5020998;28;20890;-70
2023/05/21 00:16:05;;;;;;;14.70;12.87;;;;;;;19.59;58.89;97074.25;5019863;28;20872;-73
2023/05/21 00:18:33;;;;;;;13.97;11.90;;;;;;;19.61;58.53;97062.38;5018071;28;20188;-70
2023/05/21 00:20:59;;;;;;;17.47;12.97;;;;;;;19.45;58.97;97069.00;5015703;28;20199;-70
2023/05/21 00:23:25;;;;;;;13.60;11.73;;;;;;;19.48;59.12;97059.78;5017099;28;20831;-70
2023/05/21 00:25:51;;;;;;;15.83;13.93;;;;;;;19.39;59.39;97061.91;5016369;28;20554;-69
2023/05/21 00:28:17;;;;;;;16.97;13.23;;;;;;;19.41;59.38;97059.81;5012871;28;20451;-69
2023/05/21 00:30:42;;;;;;;16.07;14.37;;;;;;;19.42;59.42;97058.78;5012276;28;20438;-70
2023/05/21 00:33:09;;;;;;;18.17;14.07;;;;;;;19.45;59.39;97049.59;5015340;28;20220;-70
2023/05/21 00:35:35;;;;;;;19.17;12.97;;;;;;;19.42;59.56;97044.69;5020058;28;20311;-71
2023/05/21 00:38:00;;;;;;;17.30;13.80;;;;;;;19.35;59.74;97050.06;5022358;28;20894;-69
2023/05/21 00:40:26;;;;;;;15.67;12.80;;;;;;;19.28;60.12;97041.31;5017409;28;20944;-69
2023/05/21 00:42:55;;;;;;;15.77;14.17;;;;;;;19.25;59.93;97037.22;5021137;28;20200;-70
2023/05/21 00:45:22;;;;;;;15.20;13.67;;;;;;;19.27;59.93;97039.69;5023742;28;20215;-71
2023/05/21 00:47:48;;;;;;;21.73;14.17;;;;;;;19.24;60.17;97040.09;5025674;28;20434;-69
2023/05/21 00:50:15;;;;;;;14.80;12.77;;;;;;;19.26;60.15;97038.06;5014366;28;20497;-70
2023/05/21 00:52:42;;;;;;;15.50;13.77;;;;;;;19.19;60.18;97036.22;5019364;28;20199;-69
2023/05/21 00:55:08;;;;;;;16.23;14.43;;;;;;;19.18;60.24;97034.59;5013958;28;21002;-70
2023/05/21 00:57:36;;;;;;;17.87;14.90;;;;;;;19.20;60.44;97031.75;5017416;28;20838;-69
2023/05/21 01:00:03;;;;;;;16.37;13.73;;;;;;;19.17;60.59;97032.97;5021668;28;20432;-69
2023/05/21 01:02:31;;;;;;;16.43;14.73;;;;;;;19.20;60.64;97031.75;5015748;28;20806;-70
2023/05/21 01:04:59;;;;;;;16.37;14.07;;;;;;;19.19;60.40;97036.22;5022825;28;20889;-69
2023/05/21 01:07:24;;;;;;;16.67;14.47;;;;;;;19.21;60.52;97027.22;5013531;28;20515;-70
2023/05/21 01:09:50;;;;;;;17.33;14.73;;;;;;;19.12;60.62;97038.09;5022400;28;20526;-69
2023/05/21 01:12:16;;;;;;;17.73;14.77;;;;;;;19.06;60.79;97030.97;5012913;28;20238;-70
2023/05/21 01:14:42;;;;;;;16.13;13.90;;;;;;;19.06;60.63;97024.84;5016184;28;20207;-70
2023/05/21 01:17:09;;;;;;;15.80;14.03;;;;;;;18.97;60.99;97033.03;5046872;28;20816;-70
2023/05/21 01:19:35;;;;;;;15.70;14.10;;;;;;;18.99;61.11;97027.53;5018352;28;20244;-70
2023/05/21 01:22:03;;;;;;;17.83;14.60;;;;;;;18.98;61.05;97017.94;5016062;28;20969;-69
2023/05/21 01:24:29;;;;;;;15.47;13.77;;;;;;;18.98;61.10;97021.41;5016486;28;20474;-69
2023/05/21 01:26:54;;;;;;;17.30;14.80;;;;;;;18.86;61.37;97023.88;5013914;28;20938;-69
2023/05/21 01:29:20;;;;;;;17.37;15.57;;;;;;;18.87;61.34;97016.72;5018368;28;20646;-70
2023/05/21 01:31:57;;;;;;;17.97;14.43;;;;;;;18.85;61.44;97016.09;5014852;28;20219;-70
2023/05/21 01:34:29;;;;;;;19.27;14.50;;;;;;;18.86;61.57;97023.88;5011367;28;20212;-69
2023/05/21 01:37:12;;;;;;;16.70;14.33;;;;;;;18.83;61.82;97016.31;5017050;28;20519;-69
2023/05/21 01:39:43;;;;;;;15.90;14.10;;;;;;;18.78;61.25;97008.16;5019113;28;20538;-70
2023/05/21 01:42:09;;;;;;;15.77;13.40;;;;;;;18.76;61.56;97010.22;5017264;28;20488;-70
2023/05/21 01:44:35;;;;;;;16.27;14.50;;;;;;;18.78;61.80;97016.13;5010914;28;20552;-70
2023/05/21 01:47:02;;;;;;;16.77;14.60;;;;;;;18.77;61.72;97011.88;5014849;28;20423;-69
2023/05/21 01:49:28;;;;;;;21.10;14.40;;;;;;;18.79;61.60;97019.63;5013047;28;20529;-69
2023/05/21 01:51:53;;;;;;;18.00;14.97;;;;;;;18.80;61.50;97010.63;5015374;28;20438;-69
2023/05/21 01:54:20;;;;;;;15.90;14.20;;;;;;;18.77;61.51;97011.88;5018582;28;20690;-69
2023/05/21 01:56:46;;;;;;;15.87;14.27;;;;;;;18.72;61.56;97012.47;5017350;28;20249;-70
2023/05/21 01:59:12;;;;;;;20.50;14.20;;;;;;;18.72;61.48;97009.00;5017663;28;20473;-69
2023/05/21 02:01:37;;;;;;;18.70;15.20;;;;;;;18.73;61.67;97005.34;5018305;28;20436;-69
2023/05/21 02:04:03;;;;;;;17.57;15.67;;;;;;;18.72;61.56;97019.63;5016245;28;20226;-69
2023/05/21 02:06:30;;;;;;;18.53;15.57;;;;;;;18.69;61.47;97009.44;5017058;28;20204;-69
2023/05/21 02:08:56;;;;;;;15.50;13.90;;;;;;;18.61;61.82;97010.47;5014278;28;20246;-69
2023/05/21 02:11:22;;;;;;;17.33;15.30;;;;;;;18.65;61.60;97013.53;5015323;28;20947;-70
2023/05/21 02:13:47;;;;;;;18.97;14.70;;;;;;;18.63;61.78;97010.28;5012081;28;20298;-69
2023/05/21 02:16:14;;;;;;;18.87;15.30;;;;;;;18.61;61.70;97017.63;5027121;28;20465;-69
2023/05/21 02:18:42;;;;;;;17.90;14.87;;;;;;;18.53;62.02;97003.53;5026405;28;20676;-70
2023/05/21 02:21:09;;;;;;;18.90;15.00;;;;;;;18.52;61.87;97015.22;5016567;28;20423;-70
2023/05/21 02:23:34;;;;;;;16.77;14.37;;;;;;;18.49;62.07;97012.13;5020038;28;20805;-69
2023/05/21 02:26:00;;;;;;;17.27;14.60;;;;;;;18.45;62.15;97009.09;5013623;28;20434;-70
2023/05/21 02:28:26;;;;;;;16.87;15.07;;;;;;;18.47;62.09;97011.50;5011826;28;21655;-71
2023/05/21 02:30:51;;;;;;;17.30;15.50;;;;;;;18.45;62.28;97005.63;5011594;28;20685;-69
2023/05/21 02:33:19;;;;;;;19.33;16.03;;;;;;;18.47;62.22;97006.22;5018921;28;20267;-69
2023/05/21 02:35:44;;;;;;;17.80;15.90;;;;;;;18.45;62.17;97009.09;5013737;28;20215;-70
2023/05/21 02:38:12;;;;;;;18.00;16.10;;;;;;;18.40;62.10;97001.75;5015525;28;20434;-70
2023/05/21 02:40:38;;;;;;;16.83;15.07;;;;;;;18.39;62.28;97004.63;5047080;28;20188;-70
2023/05/21 02:43:03;;;;;;;16.63;14.93;;;;;;;18.39;62.17;97001.97;5019795;28;20430;-69
2023/05/21 02:45:28;;;;;;;24.13;15.40;;;;;;;18.38;62.18;96995.84;5024957;28;20212;-70
2023/05/21 02:47:54;;;;;;;18.23;15.87;;;;;;;18.34;62.24;97001.75;5013952;28;20267;-69
2023/05/21 02:50:21;;;;;;;17.90;15.93;;;;;;;18.34;62.23;97001.75;5017606;28;20598;-71
2023/05/21 02:52:47;;;;;;;18.07;16.17;;;;;;;18.32;62.23;96995.84;5022438;28;20188;-69
2023/05/21 02:55:13;;;;;;;21.80;15.47;;;;;;;18.31;62.10;96995.03;5014010;28;20761;-69
2023/05/21 02:57:38;;;;;;;18.23;15.87;;;;;;;18.32;62.20;96998.50;5015530;28;20437;-70
2023/05/21 03:00:07;;;;;;;19.77;15.43;;;;;;;18.26;62.23;96995.66;5012710;28;20623;-71
2023/05/21 03:02:33;;;;;;;18.50;15.70;;;;;;;18.25;62.34;96998.50;5014252;28;20636;-70
2023/05/21 03:04:59;;;;;;;18.40;15.37;;;;;;;18.20;62.26;96993.81;5018196;28;20471;-71
2023/05/21 03:07:25;;;;;;;17.17;15.37;;;;;;;18.17;62.43;96994.22;5013924;28;20226;-70
2023/05/21 03:09:50;;;;;;;17.70;15.53;;;;;;;18.16;62.58;96987.28;5002134;28;20471;-70
2023/05/21 03:12:15;;;;;;;21.63;16.03;;;;;;;18.14;62.59;96992.00;5006940;28;20254;-70
2023/05/21 03:14:45;;;;;;;19.37;15.67;;;;;;;18.10;62.60;96986.28;5017537;28;20647;-70
2023/05/21 03:17:12;;;;;;;19.47;15.30;;;;;;;18.09;62.57;96984.66;5017021;28;20191;-71
2023/05/21 03:19:39;;;;;;;17.20;15.40;;;;;;;18.08;62.44;96984.84;5013043;28;20769;-70
2023/05/21 03:22:05;;;;;;;17.60;15.27;;;;;;;18.08;62.57;96982.22;5009604;28;20427;-70
2023/05/21 03:24:31;;;;;;;17.33;14.70;;;;;;;18.06;62.42;96986.91;5012848;28;20486;-69
2023/05/21 03:26:58;;;;;;;21.03;14.53;;;;;;;17.99;62.42;96984.25;5014245;28;20649;-70
2023/05/21 03:29:23;;;;;;;18.57;15.03;;;;;;;18.02;62.53;96994.44;5018183;28;20427;-70
2023/05/21 03:31:50;;;;;;;17.73;15.20;;;;;;;17.98;62.62;96990.56;5014436;28;20462;-70
2023/05/21 03:34:16;;;;;;;17.53;15.60;;;;;;;17.97;62.56;96978.34;5010634;28;20231;-71
2023/05/21 03:36:41;;;;;;;18.27;16.37;;;;;;;17.98;62.68;96984.47;5012520;28;20557;-70
2023/05/21 03:39:06;;;;;;;19.77;17.60;;;;;;;17.92;62.91;96986.88;5013060;28;20188;-70
2023/05/21 03:41:32;;;;;;;19.63;15.53;;;;;;;17.91;62.96;96981.78;5017476;28;20219;-69
2023/05/21 03:43:57;;;;;;;20.77;15.23;;;;;;;17.91;62.77;96973.84;5018572;28;20220;-71
2023/05/21 03:46:23;;;;;;;20.63;17.00;;;;;;;17.90;62.77;96977.50;5016014;28;20565;-71
2023/05/21 03:48:48;;;;;;;21.50;16.33;;;;;;;17.91;62.97;96977.28;5027362;28;20191;-70
2023/05/21 03:51:14;;;;;;;18.50;15.13;;;;;;;17.90;62.96;96986.25;5003726;28;20187;-70
2023/05/21 03:53:40;;;;;;;17.80;15.90;;;;;;;17.91;62.76;96987.88;5023427;28;20279;-71
2023/05/21 03:56:05;;;;;;;18.87;15.83;;;;;;;17.88;62.71;96987.50;5023051;28;20435;-71
2023/05/21 03:58:31;;;;;;;21.30;16.20;;;;;;;17.86;62.95;96997.47;5027897;28;20195;-71
2023/05/21 04:00:57;;;;;;;21.10;16.50;;;;;;;17.85;62.90;96999.31;5020924;28;20192;-71
2023/05/21 04:03:22;;;;;;;19.83;17.00;;;;;;;17.85;62.80;96995.84;5014806;28;20223;-71
2023/05/21 04:05:48;;;;;;;18.60;15.70;;;;;;;17.77;63.23;96996.84;5021810;28;20354;-70
2023/05/21 04:08:13;;;;;;;19.70;16.33;;;;;;;17.81;63.30;96998.09;5018830;28;20543;-70
2023/05/21 04:10:39;;;;;;;19.13;16.10;;;;;;;17.77;63.26;96999.50;5003275;28;20637;-71
2023/05/21 04:13:05;;;;;;;19.17;16.30;;;;;;;17.78;63.28;96996.66;5026876;28;20565;-69
2023/05/21 04:15:31;;;;;;;22.40;17.33;;;;;;;17.78;63.70;96999.31;5029401;28;20216;-70
2023/05/21 04:17:57;;;;;;;17.70;15.80;;;;;;;17.75;63.45;97010.31;5016475;28;20792;-69
2023/05/21 04:20:22;;;;;;;17.80;15.50;;;;;;;17.77;63.27;97002.16;5017755;28;20510;-69
2023/05/21 04:22:48;;;;;;;24.00;15.70;;;;;;;17.73;63.24;97012.34;5018362;28;20999;-71
2023/05/21 04:25:13;;;;;;;18.77;15.83;;;;;;;17.71;63.38;97011.72;5026269;28;20226;-69
2023/05/21 04:27:39;;;;;;;18.57;15.77;;;;;;;17.67;63.57;97013.19;5013359;28;20189;-71
2023/05/21 04:30:05;;;;;;;18.83;15.70;;;;;;;17.70;63.36;97019.91;5014865;28;20184;-71
2023/05/21 04:32:32;;;;;;;17.27;15.47;;;;;;;17.72;63.46;97016.03;5015766;28;20246;-68
2023/05/21 04:34:59;;;;;;;18.03;15.97;;;;;;;17.74;63.42;97024.59;5018090;28;20557;-69
2023/05/21 04:37:26;;;;;;;18.40;16.40;;;;;;;17.68;63.55;97030.72;5021526;28;20987;-71
2023/05/21 04:40:00;;;;;;;20.90;15.73;;;;;;;17.72;63.45;97031.91;5024580;28;21181;-70
2023/05/21 04:42:25;;;;;;;19.30;15.50;;;;;;;17.71;63.55;97027.63;5013904;28;20427;-71
2023/05/21 04:44:51;;;;;;;19.07;15.93;;;;;;;17.76;63.57;97037.66;5022539;28;20547;-70
2023/05/21 04:47:19;;;;;;;18.70;16.70;;;;;;;17.71;63.55;97038.22;5053268;28;20191;-70
2023/05/21 04:49:45;;;;;;;21.10;18.00;;;;;;;17.75;63.75;97030.72;5012262;28;20200;-71
2023/05/21 04:52:11;;;;;;;22.50;17.20;;;;;;;17.74;63.73;97040.50;5018607;28;20443;-71
2023/05/21 04:54:37;;;;;;;20.10;17.33;;;;;;;17.77;63.92;97037.44;5026160;28;20437;-71
2023/05/21 04:57:05;;;;;;;24.80;17.20;;;;;;;17.77;63.72;97039.25;5024385;28;20908;-70
2023/05/21 04:59:31;;;;;;;18.93;16.93;;;;;;;17.65;64.22;97036.41;5051238;28;20531;-70
2023/05/21 05:01:56;;;;;;;19.07;16.83;;;;;;;17.73;64.39;97038.06;5014642;28;20548;-70
2023/05/21 05:04:22;;;;;;;24.50;16.37;;;;;;;17.79;64.36;97040.72;5010482;28;20252;-70
2023/05/21 05:06:47;;;;;;;22.40;17.10;;;;;;;17.82;64.18;97036.84;5014374;28;20705;-70
2023/05/21 05:09:13;;;;;;;19.63;17.50;;;;;;;17.87;64.04;97039.69;5002161;28;20192;-70
2023/05/21 05:11:38;;;;;;;28.73;18.97;;;;;;;17.82;64.16;97042.13;5008579;28;20731;-70
2023/05/21 05:14:04;;;;;;;20.83;17.53;;;;;;;17.87;64.25;97038.88;5028625;28;20329;-71
2023/05/21 05:16:29;;;;;;;25.13;17.83;;;;;;;17.93;64.08;97038.88;5013049;28;20211;-71
2023/05/21 05:18:55;;;;;;;19.30;17.30;;;;;;;17.98;64.25;97038.28;5026772;28;20192;-69
2023/05/21 05:21:22;;;;;;;21.20;18.90;;;;;;;18.01;64.04;97045.84;5016540;28;20192;-71
2023/05/21 05:23:47;;;;;;;23.87;18.20;;;;;;;18.02;64.37;97033.41;5013280;28;20280;-71
2023/05/21 05:26:13;;;;;;;20.93;17.17;;;;;;;18.08;64.34;97029.94;5014564;28;20435;-71
2023/05/21 05:28:38;;;;;;;22.70;18.60;;;;;;;18.12;64.27;97031.16;5003765;28;20271;-70
2023/05/21 05:31:04;;;;;;;21.20;18.10;;;;;;;18.10;64.43;97034.00;5021241;28;20760;-70
2023/05/21 05:33:29;;;;;;;24.07;17.90;;;;;;;18.13;64.50;97026.66;5015068;28;20196;-70
2023/05/21 05:35:55;;;;;;;19.47;16.80;;;;;;;18.13;64.53;97027.50;5018745;28;20198;-69
2023/05/21 05:38:20;;;;;;;20.90;18.20;;;;;;;18.17;64.41;97025.25;5012496;28;20275;-69
2023/05/21 05:40:46;;;;;;;20.40;17.63;;;;;;;18.24;64.35;97026.88;5009564;28;20196;-70
2023/05/21 05:43:11;;;;;;;21.53;18.60;;;;;;;18.26;64.79;97032.78;5014829;28;20289;-72
2023/05/21 05:45:37;;;;;;;21.93;18.00;;;;;;;18.30;64.69;97037.66;5014389;28;20307;-70
2023/05/21 05:48:02;;;;;;;24.40;18.50;;;;;;;18.35;64.40;97025.41;5013919;28;20198;-70
2023/05/21 05:50:28;;;;;;;23.07;17.33;;;;;;;18.40;64.37;97032.75;5006723;28;20219;-71
2023/05/21 05:52:53;;;;;;;19.70;17.60;;;;;;;18.46;64.23;97037.25;5010371;28;20279;-69
2023/05/21 05:55:20;;;;;;;21.20;17.70;;;;;;;18.51;64.38;97034.81;5015309;28;20243;-71
2023/05/21 05:57:46;;;;;;;21.87;18.67;;;;;;;18.60;64.36;97037.22;5007884;28;20192;-71
2023/05/21 06:00:12;;;;;;;26.50;19.87;;;;;;;18.64;64.31;97039.25;5009566;28;20431;-71
2023/05/21 06:02:37;;;;;;;22.60;19.50;;;;;;;18.68;64.16;97042.28;5012133;28;20196;-71
2023/05/21 06:05:03;;;;;;;21.30;17.97;;;;;;;18.72;64.24;97040.88;5010285;28;20383;-70
2023/05/21 06:07:28;;;;;;;21.17;18.03;;;;;;;18.79;64.22;97039.00;5015690;28;20200;-70
2023/05/21 06:09:54;;;;;;;22.90;18.43;;;;;;;18.84;63.91;97036.53;5012177;28;21048;-70
2023/05/21 06:12:20;;;;;;;22.40;19.07;;;;;;;18.92;64.00;97034.66;5011509;28;20310;-71
2023/05/21 06:14:47;;;;;;;21.73;18.30;;;;;;;18.99;63.78;97032.84;5014110;28;20226;-70
2023/05/21 06:17:13;;;;;;;24.37;19.43;;;;;;;19.02;63.61;97030.59;5015147;28;20192;-71
2023/05/21 06:19:38;;;;;;;24.20;18.70;;;;;;;19.09;63.60;97035.06;5010536;28;21058;-71
2023/05/21 06:22:04;;;;;;;21.73;19.40;;;;;;;19.17;63.47;97043.59;5017859;28;20184;-72
2023/05/21 06:24:29;;;;;;;20.07;17.80;;;;;;;19.23;63.51;97030.50;5011007;28;20311;-73
2023/05/21 06:26:55;;;;;;;23.40;18.93;;;;;;;19.27;63.32;97035.16;5011895;28;20275;-71
2023/05/21 06:29:20;;;;;;;22.50;18.97;;;;;;;19.32;63.23;97039.84;5009482;28;20207;-71
2023/05/21 06:31:46;;;;;;;24.50;18.87;;;;;;;19.39;63.22;97031.84;5016937;28;20226;-71
2023/05/21 06:34:12;;;;;;;23.13;18.13;;;;;;;19.43;63.04;97033.84;5012073;28;20287;-72
2023/05/21 06:36:37;;;;;;;21.07;18.30;;;;;;;19.49;62.98;97037.50;5013062;28;20200;-72
2023/05/21 06:39:03;;;;;;;21.83;18.53;;;;;;;19.56;62.90;97035.63;5015601;28;20327;-72
2023/05/21 06:41:28;;;;;;;22.97;19.60;;;;;;;19.63;62.71;97036.38;5015974;28;20196;-72
2023/05/21 06:43:53;;;;;;;20.63;17.23;;;;;;;19.75;62.84;97031.22;5008144;28;20278;-70
2023/05/21 06:46:19;;;;;;;20.60;17.90;;;;;;;19.87;62.58;97035.88;5019330;28;20195;-71
2023/05/21 06:48:45;;;;;;;22.40;17.90;;;;;;;19.95;62.24;97039.06;5024622;28;20191;-72
2023/05/21 06:51:11;;;;;;;24.63;19.73;;;;;;;20.05;61.94;97033.25;5020589;28;20203;-72
2023/05/21 06:53:36;;;;;;;22.70;17.57;;;;;;;20.10;61.28;97046.72;5009335;28;20650;-71
2023/05/21 06:56:01;;;;;;;24.90;17.33;;;;;;;20.21;61.22;97041.72;5023015;28;20836;-70
2023/05/21 06:58:30;;;;;;;20.70;16.30;;;;;;;20.33;61.08;97039.97;5019577;28;20199;-70
2023/05/21 07:00:56;;;;;;;19.50;17.27;;;;;;;20.44;60.70;97034.97;5014154;28;20346;-71
2023/05/21 07:03:22;;;;;;;18.27;16.30;;;;;;;20.58;60.60;97036.47;5014004;28;20960;-73
2023/05/21 07:05:47;;;;;;;18.07;16.13;;;;;;;20.72;60.06;97040.63;5009442;28;20447;-71
2023/05/21 07:08:12;;;;;;;18.37;16.47;;;;;;;20.85;59.49;97041.53;5009082;28;20184;-72
2023/05/21 07:10:38;;;;;;;17.13;15.47;;;;;;;20.97;58.64;97038.94;5010899;28;20196;-72
2023/05/21 07:13:03;;;;;;;17.73;15.20;;;;;;;21.10;57.99;97043.28;5014579;28;20188;-70
2023/05/21 07:15:29;;;;;;;19.50;15.30;;;;;;;21.21;57.04;97047.06;5008395;28;20291;-71
2023/05/21 07:17:54;;;;;;;17.20;15.40;;;;;;;21.30;56.90;97046.50;5009597;28;20208;-71
2023/05/21 07:20:20;;;;;;;17.40;15.47;;;;;;;21.42;56.24;97041.25;5016271;28;20187;-72
2023/05/21 07:22:45;;;;;;;16.33;14.50;;;;;;;21.46;54.87;97046.91;5012486;28;20275;-71
2023/05/21 07:25:11;;;;;;;19.33;14.90;;;;;;;21.58;55.35;97047.78;5012179;28;20700;-73
2023/05/21 07:27:36;;;;;;;17.53;15.67;;;;;;;21.74;54.99;97042.88;5010799;28;20801;-71
2023/05/21 07:30:01;;;;;;;18.63;14.87;;;;;;;21.87;54.43;97042.69;5015723;28;20265;-72
2023/05/21 07:32:27;;;;;;;21.00;14.10;;;;;;;21.98;53.82;97048.25;5017091;28;20203;-71
2023/05/21 07:34:54;;;;;;;16.17;14.50;;;;;;;22.09;53.12;97050.97;5013946;28;20224;-72
2023/05/21 07:37:19;;;;;;;18.23;14.03;;;;;;;22.22;52.90;97049.91;5023076;28;20489;-71
2023/05/21 07:39:45;;;;;;;16.93;14.80;;;;;;;22.36;52.22;97045.19;5007721;28;20800;-72
2023/05/21 07:42:10;;;;;;;16.13;13.60;;;;;;;22.53;52.38;97045.31;5016225;28;20187;-71
2023/05/21 07:44:36;;;;;;;20.07;13.90;;;;;;;22.68;51.46;97041.34;5007861;28;20311;-70
2023/05/21 07:47:01;;;;;;;16.83;13.67;;;;;;;22.86;51.37;97045.75;5016729;28;20218;-70
2023/05/21 07:49:27;;;;;;;15.00;13.50;;;;;;;22.99;50.84;97047.31;5008660;28;20188;-70
2023/05/21 07:51:52;;;;;;;16.10;14.50;;;;;;;23.10;50.52;97035.78;5010868;28;20195;-69
2023/05/21 07:54:18;;;;;;;15.73;14.03;;;;;;;23.23;50.16;97023.22;5018098;28;20214;-70
2023/05/21 07:56:43;;;;;;;17.47;13.93;;;;;;;23.37;49.20;97031.78;5012628;28;20227;-70
2023/05/21 07:59:09;;;;;;;14.37;12.00;;;;;;;23.52;49.33;97031.25;5008024;28;20192;-70
2023/05/21 08:01:36;;;;;;;16.53;13.83;;;;;;;23.74;48.66;97026.81;5008923;28;20282;-68
2023/05/21 08:04:05;;;;;;;14.87;12.77;;;;;;;23.94;47.87;97041.63;5014939;28;20216;-69
2023/05/21 08:06:32;;;;;;;13.83;12.40;;;;;;;24.14;46.91;97030.44;5020405;28;20431;-69
2023/05/21 08:09:01;;;;;;;13.00;11.70;;;;;;;24.45;47.41;97027.41;5010545;28;20528;-69
2023/05/21 08:11:27;;;;;;;14.07;12.43;;;;;;;24.75;46.89;97024.38;5010728;28;20920;-69
2023/05/21 08:13:52;;;;;;;19.10;13.30;;;;;;;25.00;45.88;97021.19;5018078;28;20452;-69
2023/05/21 08:16:18;;;;;;;21.10;14.20;;;;;;;25.24;45.12;97025.47;5008944;28;20228;-69
2023/05/21 08:18:43;;;;;;;14.20;12.70;;;;;;;25.45;44.49;97021.19;5014623;28;20200;-69
2023/05/21 08:21:09;;;;;;;14.33;11.30;;;;;;;25.67;43.75;97017.63;5013725;28;20184;-68
2023/05/21 08:23:34;;;;;;;14.00;12.50;;;;;;;25.74;43.13;97018.22;5009935;28;20188;-67
2023/05/21 08:26:00;;;;;;;15.17;12.97;;;;;;;25.87;42.76;97028.53;5012839;28;20196;-68
2023/05/21 08:28:26;;;;;;;13.53;11.30;;;;;;;26.02;42.63;97025.16;5013957;28;20204;-68
2023/05/21 08:30:51;;;;;;;12.77;11.40;;;;;;;26.17;42.22;97026.38;5012524;28;20654;-69
2023/05/21 08:33:17;;;;;;;12.50;11.20;;;;;;;26.29;41.75;97023.50;5016019;28;20431;-69
2023/05/21 08:35:43;;;;;;;12.77;11.23;;;;;;;26.34;41.00;97031.56;5015753;28;20214;-69
2023/05/21 08:38:08;;;;;;;16.53;12.40;;;;;;;26.46;41.31;97036.75;5017072;28;20196;-68
2023/05/21 08:40:34;;;;;;;13.13;11.73;;;;;;;26.54;41.55;97041.63;5013476;28;20278;-68
2023/05/21 08:43:00;;;;;;;13.23;11.87;;;;;;;26.64;40.67;97030.97;5025454;28;20188;-71
2023/05/21 08:45:25;;;;;;;13.60;12.30;;;;;;;26.73;40.87;97039.31;5015376;28;20589;-73
2023/05/21 08:47:55;;;;;;;14.50;13.00;;;;;;;26.80;40.40;97033.75;5021593;28;20809;-74
2023/05/21 08:50:26;;;;;;;13.67;11.77;;;;;;;26.88;40.61;97029.75;5016465;28;20199;-73
2023/05/21 08:52:51;;;;;;;13.83;11.90;;;;;;;27.00;39.90;97035.72;5020310;28;21015;-75
2023/05/21 08:55:17;;;;;;;15.10;12.93;;;;;;;26.98;39.70;97029.78;5011522;28;20439;-71
2023/05/21 08:57:43;;;;;;;17.50;12.77;;;;;;;27.06;39.48;97029.31;5013683;28;20768;-72
2023/05/21 09:00:10;;;;;;;16.50;11.30;;;;;;;27.16;39.39;97022.34;5012369;28;20644;-70
2023/05/21 09:02:39;;;;;;;13.07;11.77;;;;;;;27.26;39.12;97030.44;5017472;28;20707;-71
2023/05/21 09:05:05;;;;;;;12.70;11.40;;;;;;;27.41;38.84;97026.97;5019892;28;21089;-72
2023/05/21 09:07:35;;;;;;;13.27;11.70;;;;;;;27.48;39.39;97035.63;5011682;28;20794;-73
2023/05/21 09:10:09;;;;;;;16.97;12.10;;;;;;;27.43;39.13;97031.03;5012856;28;20430;-71
2023/05/21 09:12:35;;;;;;;15.80;11.60;;;;;;;27.56;38.83;97035.09;5045240;28;20916;-73
2023/05/21 09:15:01;;;;;;;12.70;11.40;;;;;;;27.74;39.24;97033.78;5048764;28;20449;-70
2023/05/21 09:17:26;;;;;;;13.80;12.23;;;;;;;27.70;38.01;97029.19;5018604;28;20199;-71
2023/05/21 09:20:13;;;;;;;14.87;13.37;;;;;;;27.51;38.23;97035.09;5015522;28;20202;-72
2023/05/21 09:22:46;;;;;;;13.43;12.20;;;;;;;27.49;38.54;97033.75;5006032;28;20206;-71
2023/05/21 09:25:14;;;;;;;12.23;11.07;;;;;;;27.46;39.05;97051.22;5010707;28;20598;-72
2023/05/21 09:27:39;;;;;;;14.60;12.70;;;;;;;27.40;38.96;97036.94;5006853;28;20435;-70
2023/05/21 09:30:10;;;;;;;14.17;12.67;;;;;;;27.28;39.29;97039.06;5010304;28;20490;-72
2023/05/21 09:32:36;;;;;;;14.93;12.80;;;;;;;27.19;38.86;97043.34;5021727;28;20196;-71
2023/05/21 09:35:08;;;;;;;13.17;11.70;;;;;;;27.08;39.31;97039.78;5012970;28;20558;-70
2023/05/21 09:37:43;;;;;;;14.07;12.67;;;;;;;27.13;39.08;97043.31;5013527;28;20988;-73
2023/05/21 09:40:16;;;;;;;13.23;11.87;;;;;;;27.13;38.93;97051.38;5010975;28;20804;-71
2023/05/21 09:42:45;;;;;;;16.80;11.70;;;;;;;27.10;38.79;97049.19;5010037;28;20784;-73
2023/05/21 09:45:11;;;;;;;14.80;11.50;;;;;;;27.10;39.27;97043.81;5023991;28;20466;-71
2023/05/21 09:47:43;;;;;;;13.83;11.30;;;;;;;27.10;39.28;97043.03;5024683;28;20804;-72
2023/05/21 09:50:15;;;;;;;13.70;12.40;;;;;;;27.08;38.84;97048.69;5013105;28;20188;-72
2023/05/21 09:52:41;;;;;;;14.03;12.53;;;;;;;27.07;38.78;97044.38;5016549;28;20424;-70
2023/05/21 09:55:11;;;;;;;12.90;11.53;;;;;;;27.18;38.62;97044.41;5016816;28;20443;-72
2023/05/21 09:57:41;;;;;;;14.17;12.03;;;;;;;27.23;38.85;97047.91;5013633;28;20192;-72
2023/05/21 10:00:07;;;;;;;14.27;11.40;;;;;;;27.37;38.91;97042.84;5017511;28;20426;-72
2023/05/21 10:02:36;;;;;;;13.33;11.93;;;;;;;27.63;37.97;97040.22;5018086;28;20443;-72
2023/05/21 10:05:04;;;;;;;13.73;12.30;;;;;;;27.74;37.34;97039.16;5016125;28;20526;-71
2023/05/21 10:07:30;;;;;;;16.20;11.90;;;;;;;27.85;37.27;97047.28;5053537;28;20430;-71
2023/05/21 10:09:56;;;;;;;11.47;10.37;;;;;;;27.92;37.29;97047.78;5011493;28;20427;-71
2023/05/21 10:12:23;;;;;;;13.27;11.87;;;;;;;27.95;37.05;97046.44;5020434;28;20184;-72
2023/05/21 10:15:03;;;;;;;12.03;10.93;;;;;;;27.99;36.83;97045.63;5016444;28;20447;-71
2023/05/21 10:17:29;;;;;;;11.90;10.70;;;;;;;28.02;36.40;97042.41;5013927;28;20434;-71
2023/05/21 10:19:55;;;;;;;12.20;11.00;;;;;;;27.95;36.84;97047.28;5047982;28;20431;-71
2023/05/21 10:22:24;;;;;;;11.53;10.27;;;;;;;27.92;37.11;97047.78;5018942;28;20560;-71
2023/05/21 10:24:51;;;;;;;13.10;11.23;;;;;;;27.81;36.42;97038.91;5012759;28;20463;-71
2023/05/21 10:27:16;;;;;;;13.67;10.93;;;;;;;27.89;36.80;97043.75;5023802;28;20792;-73
2023/05/21 10:29:43;;;;;;;13.30;11.00;;;;;;;27.92;37.06;97046.97;5017639;28;20434;-72
2023/05/21 10:32:14;;;;;;;11.30;10.10;;;;;;;27.88;36.95;97046.72;5016275;28;20211;-72
2023/05/21 10:34:39;;;;;;;11.60;10.40;;;;;;;27.97;37.23;97047.00;5023401;28;20948;-71
2023/05/21 10:37:08;;;;;;;10.50;9.60;;;;;;;28.00;36.91;97044.56;5020958;28;20441;-71
2023/05/21 10:39:33;;;;;;;13.97;10.30;;;;;;;27.95;36.18;97046.44;5021809;28;20261;-71
2023/05/21 10:42:17;;;;;;;11.27;10.10;;;;;;;27.79;36.41;97046.44;5013569;28;20915;-72
2023/05/21 10:45:06;;;;;;;11.70;9.60;;;;;;;27.78;36.46;97041.31;5018181;28;20718;-73
2023/05/21 10:47:44;;;;;;;11.67;9.87;;;;;;;27.77;36.65;97043.22;5020364;28;20480;-72
2023/05/21 10:50:38;;;;;;;10.10;9.10;;;;;;;27.80;36.63;97033.78;5011209;28;20438;-73
2023/05/21 10:53:18;;;;;;;11.10;9.30;;;;;;;27.75;36.58;97032.69;5007952;28;20423;-71
2023/05/21 10:56:06;;;;;;;11.37;10.07;;;;;;;27.88;36.64;97031.38;5016861;28;20454;-71
2023/05/21 10:58:31;;;;;;;13.03;9.80;;;;;;;27.98;36.74;97030.56;5023221;28;20473;-72
2023/05/21 11:00:58;;;;;;;10.60;9.60;;;;;;;28.00;35.98;97033.78;5015863;28;20428;-72
2023/05/21 11:03:24;;;;;;;10.87;9.70;;;;;;;28.07;36.35;97028.13;5017490;28;20792;-72
2023/05/21 11:05:51;;;;;;;10.00;9.10;;;;;;;28.11;36.35;97023.84;5026144;28;20481;-71
2023/05/21 11:08:24;;;;;;;10.20;8.90;;;;;;;28.05;35.83;97025.72;5020646;28;20427;-74
2023/05/21 11:10:51;;;;;;;9.83;8.93;;;;;;;28.11;35.67;97023.03;5017108;28;20492;-73
2023/05/21 11:13:18;;;;;;;11.07;9.57;;;;;;;28.16;36.04;97031.13;5022103;28;20435;-71
2023/05/21 11:16:06;;;;;;;11.53;9.70;;;;;;;28.17;35.46;97033.53;5014892;28;20446;-73